Aviation Digital Data Service (ADDS)

Output produced by METARs form (0531 UTC 25 October 2014)
found at http://aviationweather.gov/adds/metars/
 
KEWR 250401Z 2504/2606 32009KT P6SM FEW150 SCT250 
     FM250600 30007KT P6SM SCT250 
     FM251600 27010KT P6SM SKC 
     FM252000 25011KT P6SM SCT050 
     FM260400 25010KT P6SM BKN050